Estación Meteorológica Peña el Pijo (Robertgarden) [ 11/16/18 15:13:17 CET ]

Fecha Hora Presion(HPa) Temp (°C) Humedad % Rocio (°C) Viento ( m/s) Direccion Lluvia 1Hora(mm) Lluvia 24H(mm) LLuvia Total(mm)
2018-Sep-30 01:01:47 1011.200 8.5 72 3.7         356.38
2018-Sep-30 02:01:38 1011.000 7.9 73 3.4         356.38
2018-Sep-30 03:01:43 1010.700 7.4 75 3.2         356.38
2018-Sep-30 04:01:38 1010.800 7.3 75 3.1         356.38
2018-Sep-30 05:01:38 1010.500 6.8 77 3.0         356.38
2018-Sep-30 06:01:45 1010.500 6.7 78 3.1         356.38
2018-Sep-30 07:01:43 1010.600 6.6 80 3.4         356.38
2018-Sep-30 08:01:27 1010.900 7.2 81 4.2         356.38
2018-Sep-30 09:01:56 1011.200 7.8 82 4.9         356.38
2018-Sep-30 10:01:39 1011.300 16.1 72 11.1         356.38
2018-Sep-30 11:02:00 1011.700 22.9 52 12.5         356.38
2018-Sep-30 12:01:51 1011.500 26.6 38 11.1         356.38
2018-Sep-30 13:01:39 1011.400 27.0 32 8.9         356.38
2018-Sep-30 14:01:49 1010.900 27.9 30 8.7         356.38
2018-Sep-30 15:01:45 1010.400 29.4 29 9.5 3.1 SSW     356.38
2018-Sep-30 16:01:58 1010.300 27.6 32 9.3         356.38
2018-Sep-30 17:01:45 1010.000 26.6 32 8.5         356.38
2018-Sep-30 18:01:35 1010.000 27.1 30 8.1         356.38
2018-Sep-30 19:01:45 1010.100 23.9 33 6.6         356.38
2018-Sep-30 20:01:41 1010.400 21.2 41 7.4         356.38
2018-Sep-30 21:02:03 1011.000 17.1 53 7.4         356.38
2018-Sep-30 22:01:50 1011.500 14.3 62 7.1         356.38
2018-Sep-30 23:01:45 1011.900 13.2 66 7.0         356.38

Temperatura Máxima:29°    Temperatura Mínima:
Presión Máxima:1011.900 Hpa    Presión Mínima:1010.000 Hpa


Volver